PANT METAR and TAF weather

Enter ICAO airport designator
Station Type Date Time Source
PANT METAR 2019/06/18 06:53 UTC NOAA

PANT 180653Z AUTO VRB06KT 10SM SCT020 BKN025 OVC041 11/09 A3003 RMK SLP171 T01110094 TSNO VIA AUTODIAL


Station Type Date Time Source
PANT Decoded METAR 2019/06/18 06:53 UTC NOAA

ANNETTE ISLAND AIRPORT, AK, United States (PANT) 55-02N 131-35W 34M
Jun 18, 2019 - 02:53 AM EDT / 2019.06.18 0653 UTC
Wind: Variable at 7 MPH (6 KT):0
Visibility: 10 mile(s):0
Sky conditions: overcast
Temperature: 52.0 F (11.1 C)
Dew Point: 48.9 F (9.4 C)
Relative Humidity: 89%
Pressure (altimeter): 30.03 in. Hg (1016 hPa)
ob: PANT 180653Z AUTO VRB06KT 10SM SCT020 BKN025 OVC041 11/09 A3003 RMK SLP171 T01110094 TSNO VIA AUTODIAL
cycle: 7

Station Type Date Time Source
PANT TAF UTC NOAA

Error!

Example: see airport list